Time;durP1;ratioP1;P1;durP2;ratioP2;P2;SDS_P1;SDS_P2;PMS_P1;PMS_P2;Temp;Humidity;BMP_temperature;BMP_pressure;BME280_temperature;BME280_humidity;BME280_pressure;Samples;Min_cycle;Max_cycle;Signal;HPM_P1;HPM_P2
2024/02/04 00:01:50;;;;;;;;;;;2.50;85.20;;;;;;5015642;28;87050;-55
2024/02/04 00:04:15;;;;;;;;;;;2.40;85.30;;;;;;5019119;28;87044;-56
2024/02/04 00:06:41;;;;;;;;;;;2.40;85.30;;;;;;5015594;28;86162;-55
2024/02/04 00:09:06;;;;;;;;;;;2.40;85.20;;;;;;5022079;28;86895;-52
2024/02/04 00:11:32;;;;;;;;;;;2.40;85.30;;;;;;5014632;28;88508;-56
2024/02/04 00:13:57;;;;;;;;;;;2.40;85.20;;;;;;5018365;28;87916;-52
2024/02/04 00:16:23;;;;;;;;;;;2.40;85.20;;;;;;5015183;28;87780;-54
2024/02/04 00:18:49;;;;;;;;;;;2.40;85.30;;;;;;5014615;28;87270;-55
2024/02/04 00:21:14;;;;;;;;;;;2.40;85.40;;;;;;5012479;28;87128;-55
2024/02/04 00:23:40;;;;;;;;;;;2.40;85.30;;;;;;5018315;28;88720;-55
2024/02/04 00:26:05;;;;;;;;;;;2.40;85.40;;;;;;5012120;28;88192;-55
2024/02/04 00:28:31;;;;;;;;;;;2.40;85.50;;;;;;5018952;28;87054;-53
2024/02/04 00:30:58;;;;;;;;;;;2.40;85.60;;;;;;5022137;28;86568;-54
2024/02/04 00:33:24;;;;;;;;;;;2.40;85.50;;;;;;5014623;28;86888;-56
2024/02/04 00:35:50;;;;;;;;;;;2.40;85.40;;;;;;5018694;28;86859;-55
2024/02/04 00:38:15;;;;;;;;;;;2.40;85.50;;;;;;5013672;28;88387;-53
2024/02/04 00:40:41;;;;;;;;;;;2.40;85.60;;;;;;5014266;28;87067;-55
2024/02/04 00:43:06;;;;;;;;;;;2.40;85.50;;;;;;5012012;28;86967;-55
2024/02/04 00:45:32;;;;;;;;;;;2.40;85.50;;;;;;5014913;28;87498;-54
2024/02/04 00:47:58;;;;;;;;;;;2.40;85.60;;;;;;5018494;28;86983;-55
2024/02/04 00:50:23;;;;;;;;;;;2.40;85.50;;;;;;5014662;28;87009;-56
2024/02/04 00:52:49;;;;;;;;;;;2.40;85.50;;;;;;5017130;28;88524;-55
2024/02/04 00:55:14;;;;;;;;;;;2.30;85.70;;;;;;5018503;28;88418;-54
2024/02/04 00:57:40;;;;;;;;;;;2.30;85.70;;;;;;5009869;28;87434;-55
2024/02/04 01:00:06;;;;;;;;;;;2.30;85.70;;;;;;5018458;28;87016;-56
2024/02/04 01:02:31;;;;;;;;;;;2.30;85.70;;;;;;5013379;28;87694;-55
2024/02/04 01:04:57;;;;;;;;;;;2.30;86.20;;;;;;5005913;28;86765;-54
2024/02/04 01:07:22;;;;;;;;;;;2.30;85.80;;;;;;5018437;28;87052;-56
2024/02/04 01:09:48;;;;;;;;;;;2.30;85.70;;;;;;5010978;28;87327;-55
2024/02/04 01:12:13;;;;;;;;;;;2.40;85.60;;;;;;5015602;28;88649;-56
2024/02/04 01:14:39;;;;;;;;;;;2.30;85.60;;;;;;5017249;28;87046;-54
2024/02/04 01:17:04;;;;;;;;;;;2.30;85.70;;;;;;5014575;28;87462;-56
2024/02/04 01:19:30;;;;;;;;;;;2.30;85.80;;;;;;5018277;28;86452;-56
2024/02/04 01:21:58;;;;;;;;;;;2.30;85.90;;;;;;5015329;28;86872;-55
2024/02/04 01:24:23;;;;;;;;;;;2.30;85.90;;;;;;5013707;28;87307;-56
2024/02/04 01:26:49;;;;;;;;;;;2.30;85.90;;;;;;5009744;28;87766;-55
2024/02/04 01:29:14;;;;;;;;;;;2.30;85.90;;;;;;5011799;28;87647;-53
2024/02/04 01:31:40;;;;;;;;;;;2.30;85.90;;;;;;5017850;28;87414;-55
2024/02/04 01:34:06;;;;;;;;;;;2.30;86.00;;;;;;5013752;28;87031;-55
2024/02/04 01:36:32;;;;;;;;;;;2.30;85.80;;;;;;5023087;28;86938;-56
2024/02/04 01:38:57;;;;;;;;;;;2.30;86.00;;;;;;5017222;28;86787;-56
2024/02/04 01:41:26;;;;;;;;;;;2.30;85.90;;;;;;5016410;28;86931;-55
2024/02/04 01:43:52;;;;;;;;;;;2.30;86.00;;;;;;5017708;28;86760;-53
2024/02/04 01:46:17;;;;;;;;;;;2.30;86.00;;;;;;5021241;28;86956;-55
2024/02/04 01:48:43;;;;;;;;;;;2.30;86.00;;;;;;5017160;28;87735;-55
2024/02/04 01:51:09;;;;;;;;;;;2.30;85.90;;;;;;5016136;28;88429;-55
2024/02/04 01:53:36;;;;;;;;;;;2.20;86.10;;;;;;5017344;28;86967;-54
2024/02/04 01:56:02;;;;;;;;;;;2.30;85.90;;;;;;5020891;28;87302;-53
2024/02/04 01:58:27;;;;;;;;;;;2.30;86.00;;;;;;5020007;28;87485;-55
2024/02/04 02:00:53;;;;;;;;;;;2.30;86.00;;;;;;5020875;28;86915;-53
2024/02/04 02:03:19;;;;;;;;;;;2.30;86.00;;;;;;5017044;28;88043;-54
2024/02/04 02:05:45;;;;;;;;;;;2.20;86.00;;;;;;5016625;28;86856;-55
2024/02/04 02:08:11;;;;;;;;;;;2.30;86.00;;;;;;5017934;28;86801;-55
2024/02/04 02:10:37;;;;;;;;;;;2.30;86.00;;;;;;5020047;28;88398;-55
2024/02/04 02:13:07;;;;;;;;;;;2.20;85.80;;;;;;5017198;28;86999;-55
2024/02/04 02:15:39;;;;;;;;;;;2.30;86.00;;;;;;5018986;28;87835;-56
2024/02/04 02:18:16;;;;;;;;;;;2.20;86.00;;;;;;5023229;28;88556;-55
2024/02/04 02:20:41;;;;;;;;;;;2.30;86.10;;;;;;5020103;28;86945;-52
2024/02/04 02:23:07;;;;;;;;;;;2.30;86.00;;;;;;5017235;28;87482;-55
2024/02/04 02:25:35;;;;;;;;;;;2.30;86.00;;;;;;5019724;28;86991;-54
2024/02/04 02:28:01;;;;;;;;;;;2.20;86.00;;;;;;5014962;28;87303;-53
2024/02/04 02:30:26;;;;;;;;;;;2.20;86.20;;;;;;5019792;28;87483;-56
2024/02/04 02:32:52;;;;;;;;;;;2.20;86.20;;;;;;5014265;28;86428;-54
2024/02/04 02:35:18;;;;;;;;;;;2.20;86.10;;;;;;5015225;28;87239;-55
2024/02/04 02:37:44;;;;;;;;;;;2.20;86.10;;;;;;5012516;28;88646;-53
2024/02/04 02:40:14;;;;;;;;;;;2.20;86.10;;;;;;5017764;28;88013;-55
2024/02/04 02:42:42;;;;;;;;;;;2.20;86.10;;;;;;5016783;28;86710;-52
2024/02/04 02:45:09;;;;;;;;;;;2.20;86.10;;;;;;5016994;28;86933;-54
2024/02/04 02:47:35;;;;;;;;;;;2.30;86.10;;;;;;5016952;28;86845;-56
2024/02/04 02:50:01;;;;;;;;;;;2.20;86.10;;;;;;5019004;28;87537;-53
2024/02/04 02:52:27;;;;;;;;;;;2.20;86.10;;;;;;5018428;28;86996;-54
2024/02/04 02:54:53;;;;;;;;;;;2.20;86.10;;;;;;5016170;28;86916;-55
2024/02/04 02:57:18;;;;;;;;;;;2.20;86.10;;;;;;5017383;28;86128;-55
2024/02/04 02:59:44;;;;;;;;;;;2.20;86.20;;;;;;5019338;28;87064;-54
2024/02/04 03:02:11;;;;;;;;;;;2.20;86.20;;;;;;5018638;28;87485;-54
2024/02/04 03:04:36;;;;;;;;;;;2.20;86.30;;;;;;5014394;28;88092;-56
2024/02/04 03:07:02;;;;;;;;;;;2.20;86.90;;;;;;5020265;28;87552;-55
2024/02/04 03:09:27;;;;;;;;;;;2.20;86.20;;;;;;5016510;28;88621;-55
2024/02/04 03:11:53;;;;;;;;;;;2.20;86.30;;;;;;5019237;28;87032;-54
2024/02/04 03:14:19;;;;;;;;;;;2.20;86.30;;;;;;5020092;28;87001;-55
2024/02/04 03:16:45;;;;;;;;;;;2.20;86.40;;;;;;5015780;28;87498;-54
2024/02/04 03:19:11;;;;;;;;;;;2.20;86.40;;;;;;5016755;28;87121;-55
2024/02/04 03:21:36;;;;;;;;;;;2.20;86.40;;;;;;5015889;28;86902;-54
2024/02/04 03:24:02;;;;;;;;;;;2.20;86.20;;;;;;5021197;28;87549;-55
2024/02/04 03:26:28;;;;;;;;;;;2.20;86.30;;;;;;5013359;28;87821;-54
2024/02/04 03:28:53;;;;;;;;;;;2.20;86.20;;;;;;5013591;28;88498;-56
2024/02/04 03:31:19;;;;;;;;;;;2.20;86.40;;;;;;5016675;28;86997;-55
2024/02/04 03:33:45;;;;;;;;;;;2.20;86.40;;;;;;5015344;28;86932;-54
2024/02/04 03:36:11;;;;;;;;;;;2.20;86.40;;;;;;5013582;28;87562;-54
2024/02/04 03:38:37;;;;;;;;;;;2.20;86.40;;;;;;5017740;28;87025;-54
2024/02/04 03:41:02;;;;;;;;;;;2.20;86.50;;;;;;5011268;28;86994;-54
2024/02/04 03:43:28;;;;;;;;;;;2.20;86.30;;;;;;5014375;28;87293;-54
2024/02/04 03:45:53;;;;;;;;;;;2.20;86.40;;;;;;5014799;28;86222;-53
2024/02/04 03:48:19;;;;;;;;;;;2.20;86.40;;;;;;5014789;28;87300;-55
2024/02/04 03:50:44;;;;;;;;;;;2.20;86.30;;;;;;5018917;28;87079;-54
2024/02/04 03:53:10;;;;;;;;;;;2.20;86.40;;;;;;5019006;28;87966;-55
2024/02/04 03:55:35;;;;;;;;;;;2.10;86.30;;;;;;5015621;28;88454;-56
2024/02/04 03:58:01;;;;;;;;;;;2.10;86.40;;;;;;5014238;28;87014;-55
2024/02/04 04:00:27;;;;;;;;;;;2.10;86.40;;;;;;5014984;28;87920;-53
2024/02/04 04:02:52;;;;;;;;;;;2.10;86.40;;;;;;5018395;28;87369;-56
2024/02/04 04:05:18;;;;;;;;;;;2.10;86.30;;;;;;5013571;28;87027;-55
2024/02/04 04:07:43;;;;;;;;;;;2.10;86.50;;;;;;5020192;28;87053;-54
2024/02/04 04:10:09;;;;;;;;;;;2.20;86.50;;;;;;5016254;28;86305;-53
2024/02/04 04:12:34;;;;;;;;;;;2.10;86.50;;;;;;5018615;28;87110;-55
2024/02/04 04:15:00;;;;;;;;;;;2.10;86.40;;;;;;5011985;28;87527;-54
2024/02/04 04:17:25;;;;;;;;;;;2.10;86.40;;;;;;5014392;28;87956;-55
2024/02/04 04:19:51;;;;;;;;;;;2.10;86.40;;;;;;5014978;28;87003;-55
2024/02/04 04:22:17;;;;;;;;;;;2.10;86.50;;;;;;5013581;28;87228;-54
2024/02/04 04:24:42;;;;;;;;;;;2.10;86.60;;;;;;5017279;28;86900;-55
2024/02/04 04:27:09;;;;;;;;;;;2.10;86.50;;;;;;5013544;28;87942;-56
2024/02/04 04:29:34;;;;;;;;;;;2.10;86.60;;;;;;5018229;28;86982;-55
2024/02/04 04:32:00;;;;;;;;;;;2.10;86.60;;;;;;5015154;28;87798;-55
2024/02/04 04:34:25;;;;;;;;;;;2.10;86.60;;;;;;5018578;28;86656;-56
2024/02/04 04:36:51;;;;;;;;;;;2.10;86.60;;;;;;5015105;28;87016;-54
2024/02/04 04:39:16;;;;;;;;;;;2.10;86.60;;;;;;5017578;28;86991;-54
2024/02/04 04:41:43;;;;;;;;;;;2.10;86.70;;;;;;5012428;28;88289;-55
2024/02/04 04:44:09;;;;;;;;;;;2.10;86.60;;;;;;5018277;28;86965;-53
2024/02/04 04:46:37;;;;;;;;;;;2.10;86.60;;;;;;5014780;28;87917;-54
2024/02/04 04:49:02;;;;;;;;;;;2.10;86.60;;;;;;5020372;28;87358;-56
2024/02/04 04:51:28;;;;;;;;;;;2.10;86.60;;;;;;5015407;28;86981;-55
2024/02/04 04:53:54;;;;;;;;;;;2.10;86.80;;;;;;5017242;28;87433;-55
2024/02/04 04:56:19;;;;;;;;;;;2.10;86.70;;;;;;5014490;28;87663;-51
2024/02/04 04:58:45;;;;;;;;;;;2.10;86.70;;;;;;5013902;28;86751;-54
2024/02/04 05:01:10;;;;;;;;;;;2.10;86.70;;;;;;5014013;28;87308;-55
2024/02/04 05:03:36;;;;;;;;;;;2.10;86.60;;;;;;5014781;28;86944;-52
2024/02/04 05:06:01;;;;;;;;;;;2.10;86.70;;;;;;5017449;28;87957;-53
2024/02/04 05:08:27;;;;;;;;;;;2.10;86.70;;;;;;5014378;28;88584;-53
2024/02/04 05:10:52;;;;;;;;;;;2.10;86.80;;;;;;5023957;28;87064;-56
2024/02/04 05:13:18;;;;;;;;;;;2.10;86.80;;;;;;5021642;28;87436;-55
2024/02/04 05:15:43;;;;;;;;;;;2.10;86.70;;;;;;5021944;28;87007;-55
2024/02/04 05:18:09;;;;;;;;;;;2.10;86.60;;;;;;5018039;28;87892;-54
2024/02/04 05:20:35;;;;;;;;;;;2.10;86.80;;;;;;5017100;28;88334;-54
2024/02/04 05:23:00;;;;;;;;;;;2.10;86.80;;;;;;5010775;28;86204;-56
2024/02/04 05:25:26;;;;;;;;;;;2.10;86.80;;;;;;5018120;28;87301;-55
2024/02/04 05:27:52;;;;;;;;;;;2.10;86.80;;;;;;5021108;28;87430;-54
2024/02/04 05:30:17;;;;;;;;;;;2.10;86.70;;;;;;5014833;28;87818;-55
2024/02/04 05:32:44;;;;;;;;;;;2.10;86.70;;;;;;5022354;28;87732;-52
2024/02/04 05:35:10;;;;;;;;;;;2.10;86.90;;;;;;5017525;28;87105;-55
2024/02/04 05:37:36;;;;;;;;;;;2.10;86.80;;;;;;5018032;28;86920;-54
2024/02/04 05:40:03;;;;;;;;;;;2.10;86.90;;;;;;5020123;28;88507;-56
2024/02/04 05:42:29;;;;;;;;;;;2.10;86.70;;;;;;5018016;28;87036;-53
2024/02/04 05:44:54;;;;;;;;;;;2.10;86.80;;;;;;5018717;28;88007;-55
2024/02/04 05:47:20;;;;;;;;;;;2.10;86.70;;;;;;5014649;28;86769;-55
2024/02/04 05:49:45;;;;;;;;;;;2.10;86.80;;;;;;5016515;28;87081;-54
2024/02/04 05:52:11;;;;;;;;;;;2.10;86.90;;;;;;5017972;28;86939;-53
2024/02/04 05:54:38;;;;;;;;;;;2.10;86.90;;;;;;5020818;28;88604;-55
2024/02/04 05:57:03;;;;;;;;;;;2.10;87.00;;;;;;5017739;28;89052;-53
2024/02/04 05:59:29;;;;;;;;;;;2.10;86.90;;;;;;5016601;28;87471;-54
2024/02/04 06:01:55;;;;;;;;;;;2.10;87.00;;;;;;5020568;28;86860;-55
2024/02/04 06:04:20;;;;;;;;;;;2.10;86.80;;;;;;5015056;28;86976;-55
2024/02/04 06:06:46;;;;;;;;;;;2.10;86.80;;;;;;5016298;28;87492;-56
2024/02/04 06:09:11;;;;;;;;;;;2.10;86.80;;;;;;5013947;28;87210;-53
2024/02/04 06:11:37;;;;;;;;;;;2.10;86.90;;;;;;5018284;28;86263;-52
2024/02/04 06:14:02;;;;;;;;;;;2.10;86.80;;;;;;5016486;28;87314;-54
2024/02/04 06:16:28;;;;;;;;;;;2.10;87.10;;;;;;5023458;28;87094;-53
2024/02/04 06:18:58;;;;;;;;;;;2.10;87.00;;;;;;5016500;28;89406;-54
2024/02/04 06:21:23;;;;;;;;;;;2.10;87.20;;;;;;5018938;28;86992;-56
2024/02/04 06:23:49;;;;;;;;;;;2.10;87.00;;;;;;5013425;28;87871;-54
2024/02/04 06:26:15;;;;;;;;;;;2.10;87.20;;;;;;5016332;28;87439;-55
2024/02/04 06:28:40;;;;;;;;;;;2.10;87.10;;;;;;5013939;28;87060;-55
2024/02/04 06:31:08;;;;;;;;;;;2.10;87.20;;;;;;5019659;28;87657;-56
2024/02/04 06:33:34;;;;;;;;;;;2.10;87.10;;;;;;5015782;28;87496;-52
2024/02/04 06:35:59;;;;;;;;;;;2.10;87.20;;;;;;5017336;28;86231;-55
2024/02/04 06:38:25;;;;;;;;;;;2.10;87.10;;;;;;5023067;28;87556;-53
2024/02/04 06:40:50;;;;;;;;;;;2.10;87.60;;;;;;5011913;28;87193;-54
2024/02/04 06:43:16;;;;;;;;;;;2.10;87.20;;;;;;5016443;28;87948;-55
2024/02/04 06:45:42;;;;;;;;;;;2.10;87.10;;;;;;5011766;28;87473;-54
2024/02/04 06:48:08;;;;;;;;;;;2.10;86.80;;;;;;5019260;28;86986;-56
2024/02/04 06:50:33;;;;;;;;;;;2.10;87.10;;;;;;5013539;28;88084;-55
2024/02/04 06:52:59;;;;;;;;;;;2.10;87.00;;;;;;5018908;28;87568;-55
2024/02/04 06:55:24;;;;;;;;;;;2.10;87.20;;;;;;5011507;28;87123;-55
2024/02/04 06:57:50;;;;;;;;;;;2.10;87.30;;;;;;5018742;28;88092;-54
2024/02/04 07:00:15;;;;;;;;;;;2.10;87.20;;;;;;5017425;28;86683;-53
2024/02/04 07:02:42;;;;;;;;;;;2.10;87.20;;;;;;5015337;28;87134;-54
2024/02/04 07:05:07;;;;;;;;;;;2.10;87.20;;;;;;5017020;28;88571;-56
2024/02/04 07:07:33;;;;;;;;;;;2.10;87.00;;;;;;5015723;28;88017;-55
2024/02/04 07:09:59;;;;;;;;;;;2.10;87.10;;;;;;5014503;28;88820;-54
2024/02/04 07:12:24;;;;;;;;;;;2.10;87.00;;;;;;5014062;28;88593;-55
2024/02/04 07:14:50;;;;;;;;;;;2.10;86.90;;;;;;5018799;28;87018;-55
2024/02/04 07:17:15;;;;;;;;;;;2.10;87.00;;;;;;5017393;28;87195;-56
2024/02/04 07:19:41;;;;;;;;;;;2.10;87.10;;;;;;5021266;28;87356;-55
2024/02/04 07:22:06;;;;;;;;;;;2.10;87.00;;;;;;5009921;28;86787;-54
2024/02/04 07:24:32;;;;;;;;;;;2.10;86.80;;;;;;5012599;28;86666;-54
2024/02/04 07:26:58;;;;;;;;;;;2.10;87.00;;;;;;5013444;28;87019;-56
2024/02/04 07:29:23;;;;;;;;;;;2.10;86.80;;;;;;5015951;28;86964;-55
2024/02/04 07:31:49;;;;;;;;;;;2.10;87.00;;;;;;5012061;28;88348;-54
2024/02/04 07:34:14;;;;;;;;;;;2.10;86.90;;;;;;5017733;28;87128;-55
2024/02/04 07:36:40;;;;;;;;;;;2.10;87.00;;;;;;5016529;28;86993;-55
2024/02/04 07:39:05;;;;;;;;;;;2.10;86.90;;;;;;5018672;28;87462;-56
2024/02/04 07:41:31;;;;;;;;;;;2.10;87.10;;;;;;5018177;28;87292;-55
2024/02/04 07:43:57;;;;;;;;;;;2.10;86.90;;;;;;5019332;28;87396;-57
2024/02/04 07:46:23;;;;;;;;;;;2.10;86.90;;;;;;5016488;28;86988;-55
2024/02/04 07:48:48;;;;;;;;;;;2.10;86.80;;;;;;5017270;28;86819;-55
2024/02/04 07:51:14;;;;;;;;;;;2.10;86.90;;;;;;5015737;28;88486;-56
2024/02/04 07:53:39;;;;;;;;;;;2.20;86.90;;;;;;5015430;28;86942;-55
2024/02/04 07:56:06;;;;;;;;;;;2.20;86.90;;;;;;5015170;28;87875;-55
2024/02/04 07:58:32;;;;;;;;;;;2.20;87.00;;;;;;5015167;28;88443;-55
2024/02/04 08:00:58;;;;;;;;;;;2.20;87.00;;;;;;5012040;28;86976;-56
2024/02/04 08:03:23;;;;;;;;;;;2.20;87.00;;;;;;5019810;28;87628;-53
2024/02/04 08:05:49;;;;;;;;;;;2.20;87.10;;;;;;5016968;28;86874;-55
2024/02/04 08:08:14;;;;;;;;;;;2.20;86.80;;;;;;5015163;28;87760;-56
2024/02/04 08:10:40;;;;;;;;;;;2.20;87.20;;;;;;5016627;28;88356;-56
2024/02/04 08:13:06;;;;;;;;;;;2.20;87.20;;;;;;5013173;28;86346;-54
2024/02/04 08:15:31;;;;;;;;;;;2.20;87.20;;;;;;5014384;28;87260;-52
2024/02/04 08:17:57;;;;;;;;;;;2.20;87.30;;;;;;5018149;28;87599;-56
2024/02/04 08:20:23;;;;;;;;;;;2.20;87.30;;;;;;5015911;28;87974;-53
2024/02/04 08:22:48;;;;;;;;;;;2.20;87.40;;;;;;5018071;28;87600;-55
2024/02/04 08:25:14;;;;;;;;;;;2.30;87.40;;;;;;5013536;28;87052;-57
2024/02/04 08:27:40;;;;;;;;;;;2.30;87.60;;;;;;5016306;28;86765;-56
2024/02/04 08:30:06;;;;;;;;;;;2.30;87.70;;;;;;5015250;28;87453;-54
2024/02/04 08:32:31;;;;;;;;;;;2.20;87.60;;;;;;5012477;28;87194;-55
2024/02/04 08:34:57;;;;;;;;;;;2.30;87.60;;;;;;5013717;28;87888;-55
2024/02/04 08:37:22;;;;;;;;;;;2.30;87.80;;;;;;5018445;28;86089;-55
2024/02/04 08:39:48;;;;;;;;;;;2.30;87.60;;;;;;5010971;28;86960;-54
2024/02/04 08:42:14;;;;;;;;;;;2.30;87.70;;;;;;5017851;28;87040;-56
2024/02/04 08:44:41;;;;;;;;;;;2.30;87.90;;;;;;5011672;28;88479;-56
2024/02/04 08:47:10;;;;;;;;;;;2.30;87.90;;;;;;5015488;28;87646;-55
2024/02/04 08:49:35;;;;;;;;;;;2.30;88.00;;;;;;5017163;28;87726;-55
2024/02/04 08:52:02;;;;;;;;;;;2.30;88.10;;;;;;5014478;28;87263;-55
2024/02/04 08:54:27;;;;;;;;;;;2.40;88.00;;;;;;5017626;28;87837;-55
2024/02/04 08:56:53;;;;;;;;;;;2.30;88.30;;;;;;5014390;28;87318;-56
2024/02/04 08:59:18;;;;;;;;;;;2.40;88.50;;;;;;5015584;28;87193;-55
2024/02/04 09:01:44;;;;;;;;;;;2.40;88.50;;;;;;5017172;28;86872;-56
2024/02/04 09:04:09;;;;;;;;;;;2.40;88.60;;;;;;5014158;28;88587;-56
2024/02/04 09:06:35;;;;;;;;;;;2.40;88.60;;;;;;5018359;28;87081;-56
2024/02/04 09:09:00;;;;;;;;;;;2.40;88.50;;;;;;5015732;28;88447;-55
2024/02/04 09:11:26;;;;;;;;;;;2.40;88.60;;;;;;5010883;28;86987;-55
2024/02/04 09:13:52;;;;;;;;;;;2.40;88.50;;;;;;5017298;28;86991;-56
2024/02/04 09:16:17;;;;;;;;;;;2.40;89.20;;;;;;5014921;28;87436;-56
2024/02/04 09:18:43;;;;;;;;;;;2.40;88.60;;;;;;5017196;28;87026;-54
2024/02/04 09:21:08;;;;;;;;;;;2.40;88.60;;;;;;5015057;28;87037;-56
2024/02/04 09:23:34;;;;;;;;;;;2.40;88.80;;;;;;5017175;28;86848;-55
2024/02/04 09:25:59;;;;;;;;;;;2.40;88.70;;;;;;5010357;28;86391;-56
2024/02/04 09:28:25;;;;;;;;;;;2.50;88.70;;;;;;5013562;28;87234;-56
2024/02/04 09:30:51;;;;;;;;;;;2.50;88.80;;;;;;5015104;28;87194;-56
2024/02/04 09:33:16;;;;;;;;;;;2.50;88.50;;;;;;5011848;28;88191;-56
2024/02/04 09:35:42;;;;;;;;;;;2.50;88.60;;;;;;5017828;28;86973;-57
2024/02/04 09:38:07;;;;;;;;;;;2.50;88.70;;;;;;5014920;28;87001;-56
2024/02/04 09:40:34;;;;;;;;;;;2.50;88.70;;;;;;5016918;28;86957;-53
2024/02/04 09:43:00;;;;;;;;;;;2.60;89.00;;;;;;5011219;28;88655;-56
2024/02/04 09:45:26;;;;;;;;;;;2.60;89.10;;;;;;5009978;28;86984;-57
2024/02/04 09:47:52;;;;;;;;;;;2.60;89.20;;;;;;5014264;28;86979;-56
2024/02/04 09:50:19;;;;;;;;;;;2.60;89.20;;;;;;5013649;28;87734;-54
2024/02/04 09:52:48;;;;;;;;;;;2.60;89.30;;;;;;5016644;28;87318;-55
2024/02/04 09:55:15;;;;;;;;;;;2.60;89.00;;;;;;5012611;28;87602;-57
2024/02/04 09:57:41;;;;;;;;;;;2.60;89.10;;;;;;5015004;28;87987;-57
2024/02/04 10:00:08;;;;;;;;;;;2.70;89.50;;;;;;5014702;28;87700;-57
2024/02/04 10:02:34;;;;;;;;;;;2.70;89.20;;;;;;5014511;28;86924;-56
2024/02/04 10:04:59;;;;;;;;;;;2.60;89.40;;;;;;5017914;28;87038;-56
2024/02/04 10:07:25;;;;;;;;;;;2.70;90.00;;;;;;5016473;28;86909;-55
2024/02/04 10:09:50;;;;;;;;;;;2.70;90.00;;;;;;5018290;28;88321;-56
2024/02/04 10:12:17;;;;;;;;;;;2.60;90.10;;;;;;5021860;28;86975;-57
2024/02/04 10:14:42;;;;;;;;;;;2.70;90.10;;;;;;5019070;28;86744;-56
2024/02/04 10:17:08;;;;;;;;;;;2.70;89.80;;;;;;5019102;28;87042;-57
2024/02/04 10:19:33;;;;;;;;;;;2.70;90.10;;;;;;5017171;28;86966;-57
2024/02/04 10:22:00;;;;;;;;;;;2.70;90.10;;;;;;5015723;28;88424;-56
2024/02/04 10:24:25;;;;;;;;;;;2.70;90.20;;;;;;5019295;28;87074;-56
2024/02/04 10:26:51;;;;;;;;;;;2.60;90.20;;;;;;5017094;28;86856;-57
2024/02/04 10:29:18;;;;;;;;;;;2.70;90.20;;;;;;5015211;28;87485;-56
2024/02/04 10:31:43;;;;;;;;;;;2.60;90.20;;;;;;5018705;28;86991;-56
2024/02/04 10:34:09;;;;;;;;;;;2.60;90.30;;;;;;5017272;28;87360;-56
2024/02/04 10:36:34;;;;;;;;;;;2.60;90.40;;;;;;5016802;28;86791;-57
2024/02/04 10:39:00;;;;;;;;;;;2.70;90.50;;;;;;5017125;28;86717;-56
2024/02/04 10:41:26;;;;;;;;;;;2.70;90.60;;;;;;5015738;28;88608;-55
2024/02/04 10:43:53;;;;;;;;;;;2.70;90.50;;;;;;5014197;28;87728;-56
2024/02/04 10:46:20;;;;;;;;;;;2.70;90.70;;;;;;5013182;28;87889;-57
2024/02/04 10:48:51;;;;;;;;;;;2.70;90.60;;;;;;5018152;28;88662;-57
2024/02/04 10:51:18;;;;;;;;;;;2.70;90.70;;;;;;5019178;28;86943;-56
2024/02/04 10:53:44;;;;;;;;;;;2.70;90.50;;;;;;5018649;28;87124;-55
2024/02/04 10:56:25;;;;;;;;;;;2.70;90.90;;;;;;5017219;28;86979;-55
2024/02/04 10:58:51;;;;;;;;;;;2.70;90.90;;;;;;5013237;28;86980;-54
2024/02/04 11:01:18;;;;;;;;;;;2.70;91.00;;;;;;5013638;28;86931;-55
2024/02/04 11:03:45;;;;;;;;;;;2.70;91.10;;;;;;5020655;28;86233;-55
2024/02/04 11:06:11;;;;;;;;;;;2.70;91.00;;;;;;5015680;28;86959;-56
2024/02/04 11:08:38;;;;;;;;;;;2.70;91.30;;;;;;5014785;28;86980;-56
2024/02/04 11:11:04;;;;;;;;;;;2.70;91.20;;;;;;5015009;28;87926;-55
2024/02/04 11:13:30;;;;;;;;;;;2.80;91.30;;;;;;5013435;28;87925;-56
2024/02/04 11:15:58;;;;;;;;;;;2.70;91.30;;;;;;5020582;28;87497;-56
2024/02/04 11:18:27;;;;;;;;;;;2.70;91.20;;;;;;5016822;28;86980;-56
2024/02/04 11:21:01;;;;;;;;;;;2.80;91.40;;;;;;5016795;28;87223;-56
2024/02/04 11:23:35;;;;;;;;;;;2.80;91.30;;;;;;5018232;28;88880;-56
2024/02/04 11:26:01;;;;;;;;;;;2.80;91.30;;;;;;5015754;28;86975;-56
2024/02/04 11:28:27;;;;;;;;;;;2.90;91.30;;;;;;5011379;28;86570;-56
2024/02/04 11:30:52;;;;;;;;;;;2.90;91.30;;;;;;5016094;28;87136;-57
2024/02/04 11:33:19;;;;;;;;;;;2.90;91.30;;;;;;5012621;28;87844;-57
2024/02/04 11:35:44;;;;;;;;;;;2.90;91.30;;;;;;5017597;28;89500;-54
2024/02/04 11:38:11;;;;;;;;;;;2.90;91.30;;;;;;5019884;28;86984;-58
2024/02/04 11:40:37;;;;;;;;;;;3.00;91.60;;;;;;5017559;28;88693;-56
2024/02/04 11:43:13;;;;;;;;;;;3.00;91.50;;;;;;5013794;28;87074;-57
2024/02/04 11:45:42;;;;;;;;;;;3.00;91.40;;;;;;5015455;28;86875;-55
2024/02/04 11:48:08;;;;;;;;;;;3.00;91.40;;;;;;5011436;28;87554;-57
2024/02/04 11:50:34;;;;;;;;;;;3.00;91.40;;;;;;5014856;28;87011;-56
2024/02/04 11:53:06;;;;;;;;;;;3.10;91.50;;;;;;5016700;28;86746;-56
2024/02/04 11:55:32;;;;;;;;;;;3.10;91.50;;;;;;5011205;28;87425;-56
2024/02/04 11:57:57;;;;;;;;;;;3.10;91.40;;;;;;5015414;28;86865;-56
2024/02/04 12:00:23;;;;;;;;;;;3.10;91.40;;;;;;5018206;28;90085;-56
2024/02/04 12:02:59;;;;;;;;;;;3.10;91.40;;;;;;5015078;28;87168;-57
2024/02/04 12:05:25;;;;;;;;;;;3.10;91.40;;;;;;5014876;28;86948;-57
2024/02/04 12:07:50;;;;;;;;;;;3.10;91.40;;;;;;5013952;28;87298;-58
2024/02/04 12:10:16;;;;;;;;;;;3.10;91.50;;;;;;5016648;28;87021;-57
2024/02/04 12:12:41;;;;;;;;;;;3.10;91.50;;;;;;5015463;28;86833;-56
2024/02/04 12:15:07;;;;;;;;;;;3.10;91.50;;;;;;5013607;28;86973;-58
2024/02/04 12:17:32;;;;;;;;;;;3.20;91.60;;;;;;5018440;28;86379;-56
2024/02/04 12:19:58;;;;;;;;;;;3.20;91.70;;;;;;5013139;28;86982;-56
2024/02/04 12:22:24;;;;;;;;;;;3.20;91.70;;;;;;5021443;28;87034;-57
2024/02/04 12:24:50;;;;;;;;;;;3.20;91.60;;;;;;5011584;28;87928;-56
2024/02/04 12:27:16;;;;;;;;;;;3.20;91.70;;;;;;5017434;28;87355;-57
2024/02/04 12:29:41;;;;;;;;;;;3.20;91.60;;;;;;5016004;28;87068;-57
2024/02/04 12:32:07;;;;;;;;;;;3.20;91.80;;;;;;5015518;28;87042;-56
2024/02/04 12:34:34;;;;;;;;;;;3.20;91.70;;;;;;5011194;28;88599;-56
2024/02/04 12:37:00;;;;;;;;;;;3.20;91.60;;;;;;5017353;28;87045;-57
2024/02/04 12:39:26;;;;;;;;;;;3.20;91.60;;;;;;5015833;28;86858;-58
2024/02/04 12:41:51;;;;;;;;;;;3.30;91.70;;;;;;5016582;28;87763;-59
2024/02/04 12:44:20;;;;;;;;;;;3.30;92.10;;;;;;5014411;28;86893;-58
2024/02/04 12:46:49;;;;;;;;;;;3.50;92.10;;;;;;5015993;28;88475;-60
2024/02/04 12:49:20;;;;;;;;;;;3.70;91.90;;;;;;5012109;28;88193;-59
2024/02/04 12:51:45;;;;;;;;;;;3.70;91.70;;;;;;5008531;28;88041;-59
2024/02/04 12:54:12;;;;;;;;;;;3.90;91.50;;;;;;5013000;28;87558;-59
2024/02/04 12:56:48;;;;;;;;;;;3.90;91.30;;;;;;5014623;28;87034;-59
2024/02/04 12:59:30;;;;;;;;;;;4.00;91.60;;;;;;5014153;28;87687;-49
2024/02/04 13:02:00;;;;;;;;;;;4.30;91.80;;;;;;5013868;28;87442;-60
2024/02/04 13:04:26;;;;;;;;;;;4.40;91.20;;;;;;5020397;28;86873;-58
2024/02/04 13:06:51;;;;;;;;;;;4.40;90.90;;;;;;5014752;28;86874;-52
2024/02/04 13:09:17;;;;;;;;;;;4.60;91.00;;;;;;5013753;28;86971;-50
2024/02/04 13:11:43;;;;;;;;;;;4.60;90.90;;;;;;5017731;28;86911;-62
2024/02/04 13:14:09;;;;;;;;;;;4.60;90.50;;;;;;5010248;28;89403;-62
2024/02/04 13:16:37;;;;;;;;;;;4.70;90.30;;;;;;5013273;28;87061;-62
2024/02/04 13:19:03;;;;;;;;;;;4.60;90.30;;;;;;5014800;28;87181;-62
2024/02/04 13:21:29;;;;;;;;;;;4.60;90.40;;;;;;5011972;28;88864;-62
2024/02/04 13:23:54;;;;;;;;;;;4.60;90.50;;;;;;5012977;28;87140;-61
2024/02/04 13:26:20;;;;;;;;;;;4.60;90.60;;;;;;5020348;28;87955;-62
2024/02/04 13:28:46;;;;;;;;;;;4.70;90.30;;;;;;5014518;28;87062;-62
2024/02/04 13:31:11;;;;;;;;;;;4.70;90.40;;;;;;5018847;28;86250;-61
2024/02/04 13:33:40;;;;;;;;;;;4.70;90.50;;;;;;5019425;28;87431;-61
2024/02/04 13:36:07;;;;;;;;;;;4.70;90.40;;;;;;5015924;28;87130;-60
2024/02/04 13:38:33;;;;;;;;;;;4.60;90.60;;;;;;5015732;28;87951;-61
2024/02/04 13:40:58;;;;;;;;;;;4.50;90.90;;;;;;5017328;28;88664;-60
2024/02/04 13:43:24;;;;;;;;;;;4.40;91.00;;;;;;5015699;28;88505;-60
2024/02/04 13:45:50;;;;;;;;;;;4.40;91.20;;;;;;5021161;28;87110;-61
2024/02/04 13:48:15;;;;;;;;;;;4.30;91.30;;;;;;5020017;28;88291;-60
2024/02/04 13:50:41;;;;;;;;;;;4.30;91.40;;;;;;5017620;28;86873;-60
2024/02/04 13:53:06;;;;;;;;;;;4.30;91.40;;;;;;5016344;28;88391;-60
2024/02/04 13:55:32;;;;;;;;;;;4.30;91.40;;;;;;5014990;28;86251;-60
2024/02/04 13:57:57;;;;;;;;;;;4.30;91.60;;;;;;5015668;28;86867;-60
2024/02/04 14:00:23;;;;;;;;;;;4.30;91.50;;;;;;5019681;28;90037;-61
2024/02/04 14:02:48;;;;;;;;;;;4.20;91.60;;;;;;5018506;28;88552;-60
2024/02/04 14:05:14;;;;;;;;;;;4.20;91.80;;;;;;5013107;28;87644;-60
2024/02/04 14:07:39;;;;;;;;;;;4.20;91.80;;;;;;5020526;28;87450;-60
2024/02/04 14:10:05;;;;;;;;;;;4.20;91.90;;;;;;5017700;28;87082;-61
2024/02/04 14:12:31;;;;;;;;;;;4.20;92.00;;;;;;5020250;28;88567;-61
2024/02/04 14:14:57;;;;;;;;;;;4.30;92.10;;;;;;5018259;28;87161;-60
2024/02/04 14:17:23;;;;;;;;;;;4.30;91.80;;;;;;5017202;28;87884;-61
2024/02/04 14:19:51;;;;;;;;;;;4.30;91.70;;;;;;5013383;28;88125;-61
2024/02/04 14:22:17;;;;;;;;;;;4.30;91.80;;;;;;5012799;28;87072;-60
2024/02/04 14:24:45;;;;;;;;;;;4.40;91.90;;;;;;5016709;28;86927;-60